Time;durP1;ratioP1;P1;durP2;ratioP2;P2;SDS_P1;SDS_P2;PMS_P1;PMS_P2;Temp;Humidity;BMP_temperature;BMP_pressure;BME280_temperature;BME280_humidity;BME280_pressure;Samples;Min_cycle;Max_cycle;Signal;HPM_P1;HPM_P2
2021/09/16 00:00:01;;;;;;;17.43;14.17;;;;;;;;;;5074578;28;20289;-75
2021/09/16 00:02:28;;;;;;;17.35;13.60;;;;;;;;;;5059919;28;20684;-75
2021/09/16 00:04:57;;;;;;;17.50;13.27;;;;;;;;;;5062946;28;20314;-75
2021/09/16 00:07:24;;;;;;;16.37;13.00;;;;;;;;;;5073532;28;20289;-75
2021/09/16 00:09:51;;;;;;;16.73;13.20;;;;;;;;;;5069297;28;20293;-76
2021/09/16 00:12:18;;;;;;;16.07;13.97;;;;;;;;;;5053862;28;20227;-76
2021/09/16 00:14:45;;;;;;;14.23;12.63;;;;;;;;;;5054032;28;20283;-75
2021/09/16 00:17:13;;;;;;;17.20;13.20;;;;;;;;;;5054236;28;20207;-75
2021/09/16 00:19:40;;;;;;;16.27;13.60;;;;;;;;;;5054250;28;20238;-75
2021/09/16 00:22:08;;;;;;;18.35;13.43;;;;;;;;;;5068829;28;20282;-76
2021/09/16 00:24:36;;;;;;;16.53;12.33;;;;;;;;;;5073457;28;20302;-76
2021/09/16 00:27:03;;;;;;;15.03;12.73;;;;;;;;;;5074445;28;20253;-75
2021/09/16 00:29:30;;;;;;;15.67;12.03;;;;;;;;;;5073427;28;20620;-75
2021/09/16 00:31:57;;;;;;;14.40;12.30;;;;;;;;;;5068054;28;20573;-75
2021/09/16 00:34:25;;;;;;;15.53;12.20;;;;;;;;;;5073596;28;20298;-75
2021/09/16 00:36:52;;;;;;;15.73;13.20;;;;;;;;;;5073801;28;20279;-75
2021/09/16 00:39:21;;;;;;;14.87;11.87;;;;;;;;;;5056353;28;20652;-75
2021/09/16 00:41:48;;;;;;;13.93;12.00;;;;;;;;;;5053692;28;20206;-75
2021/09/16 00:44:15;;;;;;;16.37;12.90;;;;;;;;;;5059814;28;20310;-75
2021/09/16 00:46:43;;;;;;;15.07;13.30;;;;;;;;;;5058886;28;20294;-75
2021/09/16 00:49:10;;;;;;;19.40;13.40;;;;;;;;;;5070893;28;20290;-75
2021/09/16 00:51:37;;;;;;;15.63;12.97;;;;;;;;;;5063025;28;20226;-75
2021/09/16 00:54:06;;;;;;;17.60;12.60;;;;;;;;;;5073379;28;20692;-75
2021/09/16 00:56:35;;;;;;;17.27;12.73;;;;;;;;;;5073220;28;20239;-75
2021/09/16 00:59:03;;;;;;;15.63;12.33;;;;;;;;;;5072794;28;20646;-75
2021/09/16 01:01:32;;;;;;;14.63;12.40;;;;;;;;;;5061396;28;20326;-75
2021/09/16 01:03:59;;;;;;;15.87;12.70;;;;;;;;;;5052620;28;21102;-75
2021/09/16 01:06:26;;;;;;;15.67;12.80;;;;;;;;;;5065110;28;20663;-75
2021/09/16 01:08:54;;;;;;;15.90;13.03;;;;;;;;;;5070899;28;20290;-76
2021/09/16 01:11:21;;;;;;;15.03;12.90;;;;;;;;;;5072771;28;20293;-75
2021/09/16 01:13:50;;;;;;;14.37;11.70;;;;;;;;;;5072297;28;20234;-75
2021/09/16 01:16:17;;;;;;;14.60;11.47;;;;;;;;;;5071131;28;20287;-75
2021/09/16 01:18:44;;;;;;;14.50;11.57;;;;;;;;;;5072732;28;20290;-76
2021/09/16 01:21:11;;;;;;;13.00;10.90;;;;;;;;;;5071565;28;20226;-75
2021/09/16 01:23:40;;;;;;;12.87;10.57;;;;;;;;;;5073086;28;20234;-75
2021/09/16 01:26:07;;;;;;;13.57;11.27;;;;;;;;;;5072790;28;20226;-76
2021/09/16 01:28:35;;;;;;;12.87;10.93;;;;;;;;;;5071966;28;20290;-75
2021/09/16 01:31:02;;;;;;;14.87;10.77;;;;;;;;;;5068358;28;20287;-75
2021/09/16 01:33:29;;;;;;;12.30;10.97;;;;;;;;;;5052743;28;20291;-75
2021/09/16 01:35:56;;;;;;;14.40;11.43;;;;;;;;;;5052102;28;20233;-75
2021/09/16 01:38:23;;;;;;;15.27;11.20;;;;;;;;;;5066013;28;20290;-75
2021/09/16 01:40:52;;;;;;;14.10;11.40;;;;;;;;;;5066926;28;20239;-75
2021/09/16 01:43:19;;;;;;;14.03;10.80;;;;;;;;;;5063039;28;20238;-75
2021/09/16 01:45:46;;;;;;;14.23;11.33;;;;;;;;;;5072487;28;20258;-76
2021/09/16 01:48:14;;;;;;;11.90;10.43;;;;;;;;;;5072337;28;20249;-75
2021/09/16 01:50:41;;;;;;;15.27;11.80;;;;;;;;;;5072188;28;20199;-75
2021/09/16 01:53:08;;;;;;;13.40;11.50;;;;;;;;;;5072354;28;20293;-75
2021/09/16 01:55:35;;;;;;;16.90;11.90;;;;;;;;;;5069930;28;20286;-75
2021/09/16 01:58:04;;;;;;;14.27;12.07;;;;;;;;;;5072225;28;20237;-75
2021/09/16 02:00:31;;;;;;;15.30;12.43;;;;;;;;;;5059708;28;20202;-76
2021/09/16 02:02:58;;;;;;;17.57;12.23;;;;;;;;;;5052102;28;20751;-75
2021/09/16 02:05:26;;;;;;;13.80;11.30;;;;;;;;;;5052026;28;20258;-75
2021/09/16 02:07:53;;;;;;;13.67;11.83;;;;;;;;;;5052294;28;20206;-75
2021/09/16 02:10:20;;;;;;;15.30;11.90;;;;;;;;;;5054456;28;20293;-75
2021/09/16 02:12:47;;;;;;;16.73;11.73;;;;;;;;;;5071945;28;20230;-75
2021/09/16 02:15:16;;;;;;;14.50;11.63;;;;;;;;;;5071367;28;20285;-75
2021/09/16 02:17:43;;;;;;;15.93;11.63;;;;;;;;;;5058760;28;20210;-75
2021/09/16 02:20:11;;;;;;;14.73;11.53;;;;;;;;;;5051928;28;20286;-75
2021/09/16 02:22:38;;;;;;;14.53;11.50;;;;;;;;;;5050238;28;20290;-75
2021/09/16 02:25:05;;;;;;;15.63;11.83;;;;;;;;;;5051619;28;20223;-75
2021/09/16 02:27:32;;;;;;;15.30;11.47;;;;;;;;;;5051214;28;20299;-75
2021/09/16 02:30:00;;;;;;;13.30;10.97;;;;;;;;;;5051636;28;20247;-75
2021/09/16 02:32:28;;;;;;;13.07;10.33;;;;;;;;;;5057023;28;20195;-76
2021/09/16 02:34:56;;;;;;;13.90;11.20;;;;;;;;;;5062823;28;20283;-75
2021/09/16 02:37:23;;;;;;;13.83;10.93;;;;;;;;;;5059090;28;20290;-75
2021/09/16 02:39:50;;;;;;;13.90;11.00;;;;;;;;;;5070918;28;20203;-75
2021/09/16 02:42:18;;;;;;;15.33;12.33;;;;;;;;;;5062831;28;20195;-75
2021/09/16 02:44:46;;;;;;;16.27;11.90;;;;;;;;;;5051114;28;20219;-76
2021/09/16 02:47:13;;;;;;;13.37;11.23;;;;;;;;;;5051303;28;20227;-75
2021/09/16 02:49:41;;;;;;;15.23;11.37;;;;;;;;;;5050980;28;20284;-75
2021/09/16 02:52:09;;;;;;;14.83;11.97;;;;;;;;;;5069823;28;20289;-75
2021/09/16 02:54:36;;;;;;;17.33;12.40;;;;;;;;;;5070668;28;20285;-75
2021/09/16 02:57:03;;;;;;;14.67;11.97;;;;;;;;;;5071184;28;20299;-75
2021/09/16 02:59:31;;;;;;;15.87;12.57;;;;;;;;;;5071473;28;20201;-76
2021/09/16 03:01:58;;;;;;;14.70;11.17;;;;;;;;;;5070457;28;20250;-75
2021/09/16 03:04:25;;;;;;;13.87;10.80;;;;;;;;;;5062032;28;20315;-75
2021/09/16 03:06:54;;;;;;;13.83;11.77;;;;;;;;;;5051310;28;20618;-76
2021/09/16 03:09:21;;;;;;;14.27;11.43;;;;;;;;;;5051381;28;20286;-76
2021/09/16 03:11:48;;;;;;;16.47;12.13;;;;;;;;;;5050698;28;20203;-75
2021/09/16 03:14:17;;;;;;;17.20;12.23;;;;;;;;;;5054602;28;20286;-75
2021/09/16 03:16:44;;;;;;;14.03;10.57;;;;;;;;;;5051026;28;20625;-75
2021/09/16 03:19:11;;;;;;;13.63;10.93;;;;;;;;;;5054860;28;20298;-76
2021/09/16 03:21:38;;;;;;;13.93;10.63;;;;;;;;;;5070772;28;20285;-75
2021/09/16 03:24:07;;;;;;;16.23;11.73;;;;;;;;;;5057938;28;20290;-75
2021/09/16 03:26:35;;;;;;;16.23;12.13;;;;;;;;;;5051340;28;20575;-75
2021/09/16 03:29:02;;;;;;;15.40;11.87;;;;;;;;;;5051017;28;20288;-75
2021/09/16 03:31:29;;;;;;;16.03;12.53;;;;;;;;;;5051400;28;20286;-74
2021/09/16 03:33:56;;;;;;;17.53;13.83;;;;;;;;;;5055545;28;20242;-75
2021/09/16 03:36:23;;;;;;;17.27;12.47;;;;;;;;;;5070740;28;20249;-75
2021/09/16 03:38:51;;;;;;;19.13;13.50;;;;;;;;;;5070952;28;20600;-75
2021/09/16 03:41:19;;;;;;;19.13;13.80;;;;;;;;;;5069725;28;20662;-75
2021/09/16 03:43:46;;;;;;;17.93;14.07;;;;;;;;;;5050839;28;20649;-75
2021/09/16 03:46:14;;;;;;;18.73;13.70;;;;;;;;;;5064348;28;20813;-75
2021/09/16 03:48:41;;;;;;;17.40;13.43;;;;;;;;;;5070944;28;20615;-76
2021/09/16 03:51:08;;;;;;;16.77;13.20;;;;;;;;;;5070467;28;20286;-75
2021/09/16 03:53:35;;;;;;;17.23;13.63;;;;;;;;;;5070874;28;20282;-75
2021/09/16 03:56:02;;;;;;;19.00;13.53;;;;;;;;;;5070264;28;20703;-75
2021/09/16 03:58:31;;;;;;;17.97;14.10;;;;;;;;;;5071365;28;20199;-76
2021/09/16 04:00:58;;;;;;;24.40;14.53;;;;;;;;;;5073424;28;20290;-75
2021/09/16 04:03:25;;;;;;;21.33;14.73;;;;;;;;;;5055799;28;20310;-75
2021/09/16 04:05:53;;;;;;;21.17;15.10;;;;;;;;;;5060757;28;20318;-75
2021/09/16 04:08:20;;;;;;;21.70;15.83;;;;;;;;;;5072166;28;20203;-74
2021/09/16 04:10:48;;;;;;;20.77;14.93;;;;;;;;;;5073948;28;20231;-75
2021/09/16 04:13:15;;;;;;;19.20;14.07;;;;;;;;;;5074226;28;20629;-76
2021/09/16 04:15:44;;;;;;;17.97;13.50;;;;;;;;;;5074417;28;20286;-75
2021/09/16 04:18:11;;;;;;;18.93;14.37;;;;;;;;;;5073243;28;20290;-75
2021/09/16 04:20:38;;;;;;;17.27;13.17;;;;;;;;;;5061971;28;20287;-75
2021/09/16 04:23:05;;;;;;;17.23;13.33;;;;;;;;;;5054043;28;20290;-75
2021/09/16 04:25:32;;;;;;;19.40;13.20;;;;;;;;;;5053315;28;20667;-75
2021/09/16 04:28:00;;;;;;;22.63;14.30;;;;;;;;;;5053764;28;20204;-75
2021/09/16 04:30:27;;;;;;;16.40;13.47;;;;;;;;;;5053599;28;20279;-76
2021/09/16 04:32:55;;;;;;;21.47;14.17;;;;;;;;;;5065392;28;20206;-74
2021/09/16 04:35:22;;;;;;;18.37;14.40;;;;;;;;;;5073542;28;20634;-75
2021/09/16 04:37:50;;;;;;;18.07;14.10;;;;;;;;;;5073260;28;20404;-74
2021/09/16 04:40:17;;;;;;;23.20;14.70;;;;;;;;;;5073656;28;20199;-74
2021/09/16 04:42:44;;;;;;;18.53;14.17;;;;;;;;;;5054743;28;20290;-74
2021/09/16 04:45:12;;;;;;;19.73;14.47;;;;;;;;;;5064367;28;20310;-74
2021/09/16 04:47:40;;;;;;;19.60;14.10;;;;;;;;;;5073261;28;20290;-74
2021/09/16 04:50:10;;;;;;;20.63;14.47;;;;;;;;;;5068078;28;20287;-75
2021/09/16 04:52:37;;;;;;;20.17;14.83;;;;;;;;;;5064673;28;20196;-75
2021/09/16 04:55:05;;;;;;;18.67;13.53;;;;;;;;;;5073059;28;20203;-75
2021/09/16 04:57:32;;;;;;;19.17;13.80;;;;;;;;;;5059628;28;20659;-75
2021/09/16 05:00:00;;;;;;;19.63;13.97;;;;;;;;;;5066317;28;20762;-74
2021/09/16 05:02:27;;;;;;;22.50;16.03;;;;;;;;;;5060338;28;20298;-76
2021/09/16 05:04:54;;;;;;;24.83;16.97;;;;;;;;;;5062531;28;20266;-76
2021/09/16 05:07:23;;;;;;;25.47;17.60;;;;;;;;;;5053163;28;20596;-76
2021/09/16 05:09:50;;;;;;;25.27;17.20;;;;;;;;;;5054900;28;20204;-75
2021/09/16 05:12:18;;;;;;;26.17;17.47;;;;;;;;;;5065306;28;20610;-75
2021/09/16 05:14:45;;;;;;;25.10;18.30;;;;;;;;;;5065496;28;20208;-75
2021/09/16 05:17:12;;;;;;;26.40;18.20;;;;;;;;;;5062270;28;20191;-75
2021/09/16 05:19:40;;;;;;;26.17;18.20;;;;;;;;;;5070402;28;20195;-75
2021/09/16 05:22:07;;;;;;;25.33;17.33;;;;;;;;;;5066283;28;20203;-76
2021/09/16 05:24:36;;;;;;;26.67;18.20;;;;;;;;;;5071214;28;20200;-75
2021/09/16 05:27:04;;;;;;;27.37;18.63;;;;;;;;;;5066573;28;20280;-76
2021/09/16 05:29:31;;;;;;;28.17;18.00;;;;;;;;;;5059238;28;20220;-75
2021/09/16 05:31:58;;;;;;;27.13;18.43;;;;;;;;;;5065453;28;20203;-75
2021/09/16 05:34:26;;;;;;;84.03;19.67;;;;;;;;;;5057369;28;20668;-75
2021/09/16 05:36:53;;;;;;;30.10;19.40;;;;;;;;;;5068406;28;20199;-75
2021/09/16 05:39:21;;;;;;;30.57;19.03;;;;;;;;;;5053784;28;20223;-75
2021/09/16 05:41:50;;;;;;;29.33;17.37;;;;;;;;;;5068868;28;20643;-76
2021/09/16 05:44:17;;;;;;;25.33;17.37;;;;;;;;;;5070104;28;20206;-76
2021/09/16 05:46:45;;;;;;;25.20;16.77;;;;;;;;;;5056792;28;20219;-78
2021/09/16 05:49:12;;;;;;;27.77;16.87;;;;;;;;;;5052138;28;20200;-77
2021/09/16 05:51:39;;;;;;;38.87;18.47;;;;;;;;;;5052756;28;20560;-77
2021/09/16 05:54:07;;;;;;;33.10;18.13;;;;;;;;;;5052368;28;20215;-77
2021/09/16 05:56:34;;;;;;;41.97;18.27;;;;;;;;;;5052512;28;20255;-78
2021/09/16 05:59:05;;;;;;;35.30;17.50;;;;;;;;;;5062839;28;20207;-78
2021/09/16 06:01:34;;;;;;;27.30;17.00;;;;;;;;;;5067931;28;20208;-77
2021/09/16 06:04:03;;;;;;;30.60;16.70;;;;;;;;;;5051761;28;20203;-78
2021/09/16 06:06:32;;;;;;;25.27;15.97;;;;;;;;;;5052191;28;20227;-78
2021/09/16 06:09:02;;;;;;;25.83;16.20;;;;;;;;;;5052272;28;20206;-78
2021/09/16 06:11:31;;;;;;;24.90;16.90;;;;;;;;;;5055093;28;20199;-78
2021/09/16 06:14:03;;;;;;;23.73;17.07;;;;;;;;;;5071716;28;20672;-77
2021/09/16 06:16:35;;;;;;;24.93;16.57;;;;;;;;;;5060360;28;20207;-77
2021/09/16 06:19:05;;;;;;;21.90;16.03;;;;;;;;;;5071812;28;20199;-78
2021/09/16 06:21:36;;;;;;;32.67;16.70;;;;;;;;;;5072003;28;20198;-77
2021/09/16 06:24:07;;;;;;;22.20;16.83;;;;;;;;;;5072211;28;20580;-77
2021/09/16 06:26:37;;;;;;;25.77;17.33;;;;;;;;;;5071563;28;20690;-77
2021/09/16 06:29:07;;;;;;;22.97;17.07;;;;;;;;;;5070722;28;20210;-78
2021/09/16 06:31:39;;;;;;;22.83;16.67;;;;;;;;;;5058009;28;20199;-78
2021/09/16 06:34:09;;;;;;;26.80;16.50;;;;;;;;;;5052091;28;20208;-77
2021/09/16 06:36:40;;;;;;;21.70;16.30;;;;;;;;;;5053876;28;20202;-78
2021/09/16 06:39:10;;;;;;;20.90;16.10;;;;;;;;;;5071817;28;20682;-78
2021/09/16 06:41:42;;;;;;;23.73;15.93;;;;;;;;;;5071631;28;20203;-78
2021/09/16 06:44:14;;;;;;;19.97;15.87;;;;;;;;;;5071546;28;20565;-77
2021/09/16 06:46:48;;;;;;;27.83;15.63;;;;;;;;;;5059278;28;20219;-78
2021/09/16 06:49:21;;;;;;;29.33;16.87;;;;;;;;;;5061224;28;20586;-77
2021/09/16 06:51:53;;;;;;;28.57;16.03;;;;;;;;;;5071459;28;20203;-78
2021/09/16 06:54:25;;;;;;;24.10;16.20;;;;;;;;;;5071729;28;20203;-78
2021/09/16 06:56:57;;;;;;;23.47;15.90;;;;;;;;;;5071230;28;20203;-78
2021/09/16 06:59:29;;;;;;;25.33;15.87;;;;;;;;;;5071593;28;20199;-78
2021/09/16 07:02:00;;;;;;;21.17;15.47;;;;;;;;;;5069641;28;20219;-78
2021/09/16 07:04:30;;;;;;;20.60;14.90;;;;;;;;;;5071886;28;20611;-79
2021/09/16 07:07:03;;;;;;;17.77;14.17;;;;;;;;;;5068758;28;20694;-78
2021/09/16 07:09:33;;;;;;;19.40;14.03;;;;;;;;;;5051760;28;20265;-78
2021/09/16 07:12:02;;;;;;;25.23;13.73;;;;;;;;;;5060439;28;20203;-78
2021/09/16 07:14:30;;;;;;;14.47;12.97;;;;;;;;;;5051500;28;20200;-76
2021/09/16 07:16:59;;;;;;;15.33;13.43;;;;;;;;;;5056914;28;20690;-79
2021/09/16 07:19:26;;;;;;;14.70;12.33;;;;;;;;;;5069806;28;20202;-77
2021/09/16 07:21:54;;;;;;;13.57;12.10;;;;;;;;;;5066024;28;20195;-78
2021/09/16 07:24:21;;;;;;;14.52;12.88;;;;;;;;;;5071316;28;20221;-77
2021/09/16 07:26:51;;;;;;;13.83;11.90;;;;;;;;;;5070545;28;20199;-77
2021/09/16 07:29:18;;;;;;;13.70;12.23;;;;;;;;;;5070882;28;20250;-77
2021/09/16 07:31:46;;;;;;;12.05;10.85;;;;;;;;;;5061446;28;20655;-77
2021/09/16 07:34:16;;;;;;;10.93;9.82;;;;;;;;;;5051826;28;20199;-76
2021/09/16 07:36:45;;;;;;;10.98;9.93;;;;;;;;;;5069240;28;20671;-76
2021/09/16 07:39:12;;;;;;;12.07;10.75;;;;;;;;;;5054864;28;20325;-77
2021/09/16 07:41:40;;;;;;;12.57;10.23;;;;;;;;;;5054957;28;20203;-77
2021/09/16 07:44:07;;;;;;;11.27;10.13;;;;;;;;;;5053761;28;20227;-77
2021/09/16 07:46:35;;;;;;;11.65;10.55;;;;;;;;;;5053699;28;20199;-76
2021/09/16 07:49:02;;;;;;;13.55;12.25;;;;;;;;;;5053651;28;20223;-76
2021/09/16 07:51:31;;;;;;;16.10;12.48;;;;;;;;;;5053364;28;20203;-76
2021/09/16 07:53:59;;;;;;;14.07;12.65;;;;;;;;;;5053711;28;20221;-76
2021/09/16 07:56:27;;;;;;;13.50;12.20;;;;;;;;;;5053391;28;20291;-77
2021/09/16 07:58:54;;;;;;;13.27;11.90;;;;;;;;;;5053787;28;20204;-77
2021/09/16 08:01:21;;;;;;;12.95;11.65;;;;;;;;;;5054223;28;20223;-77
2021/09/16 08:03:51;;;;;;;11.82;10.65;;;;;;;;;;5054517;28;20215;-77
2021/09/16 08:06:21;;;;;;;11.60;10.50;;;;;;;;;;5069571;28;20199;-77
2021/09/16 08:08:52;;;;;;;11.88;10.77;;;;;;;;;;5074152;28;20226;-77
2021/09/16 08:11:22;;;;;;;11.13;10.02;;;;;;;;;;5074252;28;20203;-77
2021/09/16 08:13:51;;;;;;;10.63;9.73;;;;;;;;;;5074719;28;20572;-77
2021/09/16 08:16:21;;;;;;;10.13;9.23;;;;;;;;;;5073748;28;20203;-77
2021/09/16 08:18:51;;;;;;;10.35;9.45;;;;;;;;;;5074283;28;20203;-77
2021/09/16 08:21:22;;;;;;;10.63;9.55;;;;;;;;;;5065891;28;20668;-77
2021/09/16 08:23:52;;;;;;;11.35;10.27;;;;;;;;;;5054174;28;20628;-77
2021/09/16 08:26:22;;;;;;;11.32;10.07;;;;;;;;;;5053411;28;20207;-77
2021/09/16 08:28:51;;;;;;;10.00;9.07;;;;;;;;;;5053150;28;20687;-77
2021/09/16 08:31:21;;;;;;;10.77;9.77;;;;;;;;;;5053457;28;20206;-77
2021/09/16 08:33:51;;;;;;;10.45;9.55;;;;;;;;;;5053723;28;20218;-77
2021/09/16 08:36:20;;;;;;;10.93;9.93;;;;;;;;;;5053735;28;20200;-77
2021/09/16 08:38:50;;;;;;;11.50;10.40;;;;;;;;;;5073903;28;20199;-77
2021/09/16 08:41:21;;;;;;;10.23;9.30;;;;;;;;;;5073426;28;20603;-77
2021/09/16 08:43:52;;;;;;;12.88;11.68;;;;;;;;;;5070536;28;20195;-78
2021/09/16 08:46:21;;;;;;;11.77;10.73;;;;;;;;;;5051876;28;20642;-77
2021/09/16 08:48:50;;;;;;;12.43;11.30;;;;;;;;;;5053677;28;20220;-77
2021/09/16 08:51:20;;;;;;;11.68;10.57;;;;;;;;;;5053321;28;20200;-78
2021/09/16 08:53:50;;;;;;;11.77;10.73;;;;;;;;;;5053634;28;20199;-77
2021/09/16 08:56:21;;;;;;;12.25;11.05;;;;;;;;;;5053397;28;20211;-78
2021/09/16 08:58:51;;;;;;;10.15;9.25;;;;;;;;;;5053113;28;20200;-77
2021/09/16 09:01:21;;;;;;;10.20;9.30;;;;;;;;;;5053643;28;20542;-78
2021/09/16 09:03:50;;;;;;;10.70;9.60;;;;;;;;;;5073456;28;20205;-77
2021/09/16 09:06:32;;;;;;;9.98;9.07;;;;;;;;;;5073659;28;20202;-77
2021/09/16 09:09:12;;;;;;;9.38;8.45;;;;;;;;;;5073168;28;20234;-77
2021/09/16 09:12:02;;;;;;;8.05;7.25;;;;;;;;;;5073221;28;20199;-78
2021/09/16 09:14:33;;;;;;;7.60;6.90;;;;;;;;;;5066843;28;20199;-77
2021/09/16 09:17:04;;;;;;;6.72;6.13;;;;;;;;;;5071957;28;20195;-77
2021/09/16 09:19:33;;;;;;;7.70;6.95;;;;;;;;;;5072754;28;20202;-78
2021/09/16 09:22:08;;;;;;;8.82;7.97;;;;;;;;;;5072994;28;20214;-78
2021/09/16 09:24:39;;;;;;;8.00;7.20;;;;;;;;;;5072699;28;20202;-77
2021/09/16 09:27:23;;;;;;;8.60;7.80;;;;;;;;;;5072618;28;20203;-77
2021/09/16 09:30:09;;;;;;;8.10;7.32;;;;;;;;;;5070284;28;20570;-77
2021/09/16 09:32:48;;;;;;;9.95;8.48;;;;;;;;;;5062260;28;20221;-77
2021/09/16 09:35:29;;;;;;;8.60;7.70;;;;;;;;;;5073010;28;20203;-77
2021/09/16 09:37:59;;;;;;;9.38;8.38;;;;;;;;;;5065906;28;20214;-78
2021/09/16 09:40:29;;;;;;;7.30;6.60;;;;;;;;;;5072421;28;20198;-77
2021/09/16 09:42:59;;;;;;;7.97;7.03;;;;;;;;;;5072479;28;20199;-77
2021/09/16 09:45:30;;;;;;;8.18;7.30;;;;;;;;;;5072504;28;20226;-77
2021/09/16 09:47:59;;;;;;;7.20;6.50;;;;;;;;;;5072684;28;20226;-77
2021/09/16 09:50:30;;;;;;;7.53;6.45;;;;;;;;;;5059543;28;20691;-77
2021/09/16 09:53:15;;;;;;;6.65;5.93;;;;;;;;;;5072497;28;20206;-77
2021/09/16 09:55:45;;;;;;;8.63;7.45;;;;;;;;;;5072254;28;20912;-77
2021/09/16 09:58:15;;;;;;;8.43;7.53;;;;;;;;;;5072113;28;20203;-77
2021/09/16 10:00:46;;;;;;;8.25;7.25;;;;;;;;;;5072617;28;20198;-77
2021/09/16 10:03:15;;;;;;;8.52;7.47;;;;;;;;;;5072539;28;20227;-77
2021/09/16 10:05:47;;;;;;;8.27;7.47;;;;;;;;;;5070899;28;20242;-77
2021/09/16 10:08:17;;;;;;;8.50;7.70;;;;;;;;;;5052537;28;20204;-77
2021/09/16 10:10:48;;;;;;;8.07;7.28;;;;;;;;;;5051731;28;20285;-77
2021/09/16 10:13:18;;;;;;;8.57;7.78;;;;;;;;;;5052408;28;20199;-77
2021/09/16 10:15:50;;;;;;;8.20;7.40;;;;;;;;;;5051750;28;20572;-77
2021/09/16 10:18:20;;;;;;;8.07;7.32;;;;;;;;;;5052163;28;20204;-78
2021/09/16 10:20:50;;;;;;;9.23;6.90;;;;;;;;;;5051915;28;20196;-78
2021/09/16 10:23:20;;;;;;;8.32;7.00;;;;;;;;;;5034571;28;20207;-78
2021/09/16 10:25:51;;;;;;;7.55;6.85;;;;;;;;;;5051178;28;20613;-77
2021/09/16 10:28:21;;;;;;;7.72;6.90;;;;;;;;;;5052160;28;20226;-77
2021/09/16 10:30:52;;;;;;;6.60;6.00;;;;;;;;;;5064382;28;20219;-77
2021/09/16 10:33:30;;;;;;;7.05;6.35;;;;;;;;;;5061076;28;20547;-77
2021/09/16 10:36:10;;;;;;;7.10;6.40;;;;;;;;;;5062501;28;20217;-78
2021/09/16 10:38:41;;;;;;;7.40;6.70;;;;;;;;;;5070557;28;20230;-78
2021/09/16 10:41:17;;;;;;;9.20;6.82;;;;;;;;;;5051686;28;20204;-78
2021/09/16 10:43:48;;;;;;;6.88;6.28;;;;;;;;;;5051589;28;20214;-78
2021/09/16 10:46:29;;;;;;;6.30;5.70;;;;;;;;;;5068135;28;20707;-78
2021/09/16 10:48:59;;;;;;;6.45;5.85;;;;;;;;;;5056001;28;20199;-76
2021/09/16 10:51:38;;;;;;;6.72;6.13;;;;;;;;;;5071602;28;20254;-77
2021/09/16 10:54:26;;;;;;;6.80;6.20;;;;;;;;;;5071382;28;20203;-76
2021/09/16 10:57:00;;;;;;;5.78;5.28;;;;;;;;;;5071136;28;20207;-76
2021/09/16 10:59:42;;;;;;;6.22;5.60;;;;;;;;;;5071584;28;20203;-77
2021/09/16 11:02:11;;;;;;;6.40;5.80;;;;;;;;;;5070926;28;20221;-76
2021/09/16 11:04:57;;;;;;;6.05;5.43;;;;;;;;;;5070567;28;20235;-76
2021/09/16 11:07:52;;;;;;;5.15;4.70;;;;;;;;;;5051831;28;20200;-77
2021/09/16 11:10:38;;;;;;;6.50;4.45;;;;;;;;;;5055143;28;20596;-76
2021/09/16 11:13:28;;;;;;;5.15;4.57;;;;;;;;;;5055799;28;20199;-76
2021/09/16 11:15:55;;;;;;;5.80;3.75;;;;;;;;;;5061480;28;20206;-77
2021/09/16 11:18:26;;;;;;;4.63;4.20;;;;;;;;;;5075988;28;20206;-76
2021/09/16 11:20:56;;;;;;;4.88;4.40;;;;;;;;;;5075399;28;20260;-76
2021/09/16 11:23:23;;;;;;;4.80;4.30;;;;;;;;;;5075466;28;20206;-79
2021/09/16 11:25:51;;;;;;;5.13;4.05;;;;;;;;;;5075717;28;20214;-75
2021/09/16 11:28:19;;;;;;;5.78;3.55;;;;;;;;;;5073038;28;20666;-76
2021/09/16 11:30:47;;;;;;;5.32;4.82;;;;;;;;;;5075668;28;20222;-76
2021/09/16 11:33:16;;;;;;;5.97;5.47;;;;;;;;;;5071423;28;20196;-78
2021/09/16 11:35:45;;;;;;;5.63;5.13;;;;;;;;;;5074726;28;20289;-76
2021/09/16 11:38:14;;;;;;;5.78;5.28;;;;;;;;;;5063201;28;20207;-76
2021/09/16 11:40:44;;;;;;;4.68;4.25;;;;;;;;;;5060278;28;20258;-76
2021/09/16 11:43:14;;;;;;;4.47;4.07;;;;;;;;;;5054727;28;20204;-76
2021/09/16 11:45:42;;;;;;;4.80;4.30;;;;;;;;;;5054538;28;20207;-76
2021/09/16 11:48:10;;;;;;;4.13;3.72;;;;;;;;;;5054628;28;21305;-76
2021/09/16 11:50:39;;;;;;;4.25;3.88;;;;;;;;;;5055113;28;20593;-76
2021/09/16 11:53:09;;;;;;;5.18;4.68;;;;;;;;;;5059287;28;20202;-76
2021/09/16 11:55:37;;;;;;;5.10;4.60;;;;;;;;;;5058133;28;20200;-76
2021/09/16 11:58:06;;;;;;;5.63;3.60;;;;;;;;;;5054867;28;20206;-76
2021/09/16 12:00:36;;;;;;;5.32;4.35;;;;;;;;;;5054768;28;20204;-76
2021/09/16 12:03:05;;;;;;;6.82;4.60;;;;;;;;;;5054645;28;20251;-76
2021/09/16 12:05:34;;;;;;;4.97;4.53;;;;;;;;;;5053962;28;20849;-76
2021/09/16 12:08:02;;;;;;;4.95;4.50;;;;;;;;;;5053801;28;20195;-76
2021/09/16 12:10:37;;;;;;;4.50;3.63;;;;;;;;;;5069716;28;20195;-76
2021/09/16 12:13:06;;;;;;;4.07;3.67;;;;;;;;;;5073980;28;20230;-76
2021/09/16 12:15:34;;;;;;;4.45;4.00;;;;;;;;;;5056073;28;20211;-75
2021/09/16 12:18:02;;;;;;;5.28;4.78;;;;;;;;;;5059455;28;20210;-76
2021/09/16 12:20:29;;;;;;;4.45;4.03;;;;;;;;;;5073416;28;20206;-76
2021/09/16 12:22:57;;;;;;;7.05;5.57;;;;;;;;;;5074717;28;20198;-76
2021/09/16 12:25:26;;;;;;;4.45;3.92;;;;;;;;;;5073781;28;20203;-76
2021/09/16 12:28:09;;;;;;;4.47;4.07;;;;;;;;;;5074170;28;20663;-76
2021/09/16 12:30:37;;;;;;;3.53;3.22;;;;;;;;;;5074116;28;20217;-76
2021/09/16 12:33:05;;;;;;;4.60;4.20;;;;;;;;;;5064076;28;20719;-76
2021/09/16 12:35:33;;;;;;;4.93;4.28;;;;;;;;;;5053524;28;20684;-76
2021/09/16 12:38:07;;;;;;;5.40;3.67;;;;;;;;;;5055492;28;20215;-76
2021/09/16 12:40:34;;;;;;;5.40;3.72;;;;;;;;;;5054062;28;20199;-76
2021/09/16 12:43:07;;;;;;;4.45;3.22;;;;;;;;;;5053789;28;20196;-77
2021/09/16 12:45:34;;;;;;;4.32;3.92;;;;;;;;;;5053817;28;20237;-77
2021/09/16 12:48:01;;;;;;;4.40;4.00;;;;;;;;;;5070279;28;20203;-76
2021/09/16 12:50:29;;;;;;;4.75;4.30;;;;;;;;;;5073423;28;20195;-76
2021/09/16 12:53:00;;;;;;;4.18;3.78;;;;;;;;;;5073779;28;20230;-76
2021/09/16 12:55:28;;;;;;;4.20;3.80;;;;;;;;;;5073411;28;20663;-77
2021/09/16 12:58:06;;;;;;;4.25;3.85;;;;;;;;;;5073935;28;20604;-76
2021/09/16 13:00:35;;;;;;;4.60;4.20;;;;;;;;;;5058044;28;20195;-76
2021/09/16 13:03:02;;;;;;;4.70;4.05;;;;;;;;;;5068243;28;20219;-76
2021/09/16 13:05:32;;;;;;;4.60;4.10;;;;;;;;;;5072772;28;20247;-76
2021/09/16 13:08:09;;;;;;;5.07;4.50;;;;;;;;;;5073448;28;20207;-76
2021/09/16 13:10:39;;;;;;;4.30;3.90;;;;;;;;;;5066768;28;20202;-76
2021/09/16 13:13:07;;;;;;;5.03;4.07;;;;;;;;;;5061761;28;20250;-76
2021/09/16 13:15:37;;;;;;;4.75;3.75;;;;;;;;;;5073115;28;20810;-76
2021/09/16 13:18:05;;;;;;;4.90;3.90;;;;;;;;;;5073454;28;20213;-76
2021/09/16 13:20:33;;;;;;;3.85;3.13;;;;;;;;;;5072726;28;20211;-76
2021/09/16 13:23:00;;;;;;;4.15;3.80;;;;;;;;;;5069817;28;20192;-77
2021/09/16 13:25:28;;;;;;;2.60;2.40;;;;;;;;;;5059218;28;20666;-77
2021/09/16 13:27:55;;;;;;;3.90;3.47;;;;;;;;;;5047395;28;20203;-76
2021/09/16 13:30:23;;;;;;;4.15;3.70;;;;;;;;;;5072134;28;20558;-76
2021/09/16 13:32:52;;;;;;;3.05;2.75;;;;;;;;;;5072143;28;20249;-76
2021/09/16 13:35:20;;;;;;;3.90;3.50;;;;;;;;;;5072594;28;20281;-77
2021/09/16 13:37:48;;;;;;;3.63;3.30;;;;;;;;;;5060849;28;20212;-76
2021/09/16 13:40:16;;;;;;;5.90;4.30;;;;;;;;;;5053066;28;20204;-76
2021/09/16 13:42:44;;;;;;;4.25;3.90;;;;;;;;;;5052409;28;20192;-76
2021/09/16 13:45:13;;;;;;;3.95;3.53;;;;;;;;;;5052934;28;20562;-76
2021/09/16 13:47:44;;;;;;;3.75;3.45;;;;;;;;;;5052297;28;20204;-76
2021/09/16 13:50:13;;;;;;;4.45;4.05;;;;;;;;;;5052503;28;20208;-76
2021/09/16 13:52:41;;;;;;;4.85;4.10;;;;;;;;;;5063837;28;20219;-76
2021/09/16 13:55:09;;;;;;;4.30;3.90;;;;;;;;;;5052654;28;20256;-76
2021/09/16 13:57:37;;;;;;;4.55;4.15;;;;;;;;;;5052648;28;20223;-76
2021/09/16 14:00:05;;;;;;;3.83;3.53;;;;;;;;;;5052616;28;20219;-76
2021/09/16 14:02:32;;;;;;;6.30;4.47;;;;;;;;;;5062611;28;20230;-76
2021/09/16 14:04:59;;;;;;;4.68;4.22;;;;;;;;;;5072579;28;20234;-76
2021/09/16 14:07:28;;;;;;;4.47;3.38;;;;;;;;;;5070342;28;20195;-76
2021/09/16 14:09:56;;;;;;;4.07;3.67;;;;;;;;;;5067598;28;20203;-76
2021/09/16 14:12:23;;;;;;;4.28;3.42;;;;;;;;;;5060288;28;20216;-76
2021/09/16 14:14:51;;;;;;;3.45;3.10;;;;;;;;;;5055098;28;20582;-76
2021/09/16 14:17:18;;;;;;;3.90;3.50;;;;;;;;;;5069413;28;20231;-76
2021/09/16 14:19:46;;;;;;;5.38;3.08;;;;;;;;;;5066272;28;20574;-76
2021/09/16 14:22:13;;;;;;;3.47;3.13;;;;;;;;;;5038157;28;20624;-77
2021/09/16 14:24:42;;;;;;;3.60;3.28;;;;;;;;;;5069216;28;20214;-76
2021/09/16 14:27:09;;;;;;;4.60;4.20;;;;;;;;;;5056033;28;20191;-76
2021/09/16 14:29:37;;;;;;;5.22;3.58;;;;;;;;;;5058164;28;20549;-75
2021/09/16 14:32:04;;;;;;;5.93;4.00;;;;;;;;;;5068193;28;20539;-77
2021/09/16 14:34:32;;;;;;;3.78;3.40;;;;;;;;;;5056743;28;20202;-77
2021/09/16 14:37:03;;;;;;;4.20;3.80;;;;;;;;;;5056291;28;20306;-76